Time;durP1;ratioP1;P1;durP2;ratioP2;P2;SDS_P1;SDS_P2;PMS_P1;PMS_P2;Temp;Humidity;BMP_temperature;BMP_pressure;BME280_temperature;BME280_humidity;BME280_pressure;Samples;Min_cycle;Max_cycle;Signal;HPM_P1;HPM_P2
2021/11/06 00:00:43;;;;;;;;;12.50;11.50;;;;;6.09;82.37;100564.31;6284347;20;2786763;-42
2021/11/06 00:03:12;;;;;;;;;21.00;18.00;;;;;5.96;82.78;100571.78;6282354;20;3550277;-44
2021/11/06 00:05:41;;;;;;;;;23.00;19.67;;;;;5.92;82.41;100573.63;6314653;20;3566909;-44
2021/11/06 00:08:10;;;;;;;;;22.00;17.67;;;;;5.86;83.06;100575.56;6282771;20;3547181;-42
2021/11/06 00:10:39;;;;;;;;;21.00;18.50;;;;;5.72;83.49;100575.97;6313257;20;2483586;-42
2021/11/06 00:13:08;;;;;;;;;16.00;16.00;;;;;5.68;84.40;100582.28;6284967;20;3547126;-42
2021/11/06 00:15:36;;;;;;;;;18.67;17.33;;;;;5.36;85.80;100586.66;6313719;20;3562885;-42
2021/11/06 00:18:05;;;;;;;;;27.50;24.00;;;;;5.11;87.19;100583.75;6310499;20;2500288;-42
2021/11/06 00:20:33;;;;;;;;;26.00;24.00;;;;;4.82;90.02;100587.13;6281016;20;2500380;-43
2021/11/06 00:23:02;;;;;;;;;30.00;24.00;;;;;4.70;91.26;100590.94;6284444;20;2854490;-42
2021/11/06 00:25:31;;;;;;;;;27.00;26.00;;;;;4.68;92.06;100592.75;6281369;20;2846183;-42
2021/11/06 00:27:59;;;;;;;;;23.50;21.50;;;;;4.58;91.82;100592.09;6278233;20;2500396;-43
2021/11/06 00:30:27;;;;;;;;;30.00;26.00;;;;;4.45;92.44;100595.94;6284754;20;2854432;-42
2021/11/06 00:32:56;;;;;;;;;25.00;23.00;;;;;4.46;92.66;100599.47;6282339;20;3581645;-42
2021/11/06 00:35:24;;;;;;;;;23.00;21.00;;;;;4.41;92.90;100596.91;6282374;20;2498216;-43
2021/11/06 00:37:56;;;;;;;;;22.33;21.67;;;;;4.51;92.95;100600.25;6280526;20;3562753;-43
2021/11/06 00:40:25;;;;;;;;;19.00;18.00;;;;;4.46;92.71;100597.69;6314753;20;3570045;-42
2021/11/06 00:42:53;;;;;;;;;20.00;16.50;;;;;4.51;92.50;100598.47;6285984;20;2824227;-42
2021/11/06 00:45:22;;;;;;;;;20.33;20.33;;;;;4.49;92.03;100597.59;6283014;20;3573200;-42
2021/11/06 00:47:51;;;;;;;;;23.33;16.33;;;;;4.53;91.25;100593.09;6312984;20;3570516;-42
2021/11/06 00:50:20;;;;;;;;;28.00;22.00;;;;;4.27;91.92;100591.91;6284913;20;2841956;-42
2021/11/06 00:52:49;;;;;;;;;24.00;20.00;;;;;4.09;92.22;100603.78;6281907;20;2500311;-43
2021/11/06 00:55:18;;;;;;;;;22.33;18.33;;;;;4.09;94.04;100601.13;6283402;20;3551343;-43
2021/11/06 00:57:48;;;;;;;;;24.33;19.33;;;;;4.15;94.28;100600.09;6279016;20;3553463;-43
2021/11/06 01:00:19;;;;;;;;;25.00;17.33;;;;;4.29;92.92;100603.38;6283701;20;3575240;-42
2021/11/06 01:02:50;;;;;;;;;24.67;17.33;;;;;4.74;90.94;100615.66;6314806;20;3569116;-42
2021/11/06 01:05:19;;;;;;;;;21.50;20.00;;;;;4.79;90.20;100606.69;6316873;20;2817027;-45
2021/11/06 01:07:48;;;;;;;;;19.67;17.67;;;;;4.65;92.01;100610.56;6282561;20;3550347;-43
2021/11/06 01:10:18;;;;;;;;;22.50;19.50;;;;;4.70;90.79;100616.66;6312169;20;2500241;-44
2021/11/06 01:12:46;;;;;;;;;18.50;18.50;;;;;5.06;89.72;100617.59;6280062;20;2500272;-45
2021/11/06 01:15:16;;;;;;;;;21.67;18.67;;;;;5.04;89.08;100619.41;6283118;20;3551286;-45
2021/11/06 01:17:45;;;;;;;;;25.00;19.00;;;;;5.18;88.83;100616.41;6279977;20;2834622;-47
2021/11/06 01:20:15;;;;;;;;;21.00;17.50;;;;;5.28;88.35;100610.81;6283609;20;2823292;-45
2021/11/06 01:22:44;;;;;;;;;15.33;15.00;;;;;5.25;87.91;100615.38;6283069;20;3546065;-47
2021/11/06 01:25:16;;;;;;;;;15.67;13.00;;;;;5.14;88.53;100622.75;6312758;20;3549180;-45
2021/11/06 01:27:48;;;;;;;;;18.67;15.33;;;;;4.99;89.07;100614.19;6279524;20;3549196;-45
2021/11/06 01:30:17;;;;;;;;;16.00;16.00;;;;;4.97;89.56;100615.16;6310925;20;3552319;-44
2021/11/06 01:32:46;;;;;;;;;14.00;13.00;;;;;4.87;90.18;100611.84;6313057;20;2814842;-44
2021/11/06 01:35:16;;;;;;;;;15.67;15.00;;;;;4.97;90.25;100609.81;6279873;20;3541016;-44
2021/11/06 01:37:46;;;;;;;;;18.50;15.50;;;;;4.75;90.48;100605.00;6313676;20;2825295;-45
2021/11/06 01:40:18;;;;;;;;;18.00;16.00;;;;;4.34;92.67;100613.88;6281806;20;3545137;-43
2021/11/06 01:42:48;;;;;;;;;21.33;21.33;;;;;3.62;93.25;100617.97;6279065;20;3571079;-44
2021/11/06 01:45:19;;;;;;;;;24.33;18.67;;;;;3.55;94.97;100625.16;6282563;20;3556460;-42
2021/11/06 01:47:49;;;;;;;;;25.50;22.00;;;;;3.77;94.41;100632.75;6313748;20;2844089;-46
2021/11/06 01:50:20;;;;;;;;;23.00;21.50;;;;;3.58;95.19;100625.13;6280769;20;2500248;-44
2021/11/06 01:52:48;;;;;;;;;20.00;20.00;;;;;3.77;95.58;100632.75;6280816;20;2829533;-44
2021/11/06 01:55:25;;;;;;;;;24.67;17.00;;;;;3.42;96.62;100627.19;6280101;20;3565829;-45
2021/11/06 01:57:54;;;;;;;;;19.00;16.67;;;;;3.60;97.10;100636.56;6311621;20;3558595;-42
2021/11/06 02:00:28;;;;;;;;;24.00;17.00;;;;;3.61;97.21;100633.03;6312623;20;2819895;-43
2021/11/06 02:02:57;;;;;;;;;19.00;19.00;;;;;3.84;97.84;100637.03;6282271;20;3547085;-42
2021/11/06 02:05:25;;;;;;;;;23.00;20.50;;;;;3.73;96.93;100651.38;6311218;20;2824204;-44
2021/11/06 02:07:53;;;;;;;;;13.00;10.50;;;;;3.84;96.61;100660.94;6282610;20;2779471;-43
2021/11/06 02:10:22;;;;;;;;;20.33;16.33;;;;;3.57;97.38;100655.22;6282620;20;3561798;-42
2021/11/06 02:12:53;;;;;;;;;20.67;18.33;;;;;3.66;98.65;100652.41;6284245;20;3548297;-43
2021/11/06 02:15:22;;;;;;;;;17.33;17.00;;;;;4.08;96.97;100654.28;6285515;20;3554425;-43
2021/11/06 02:17:51;;;;;;;;;25.00;16.67;;;;;4.11;95.77;100647.16;6317057;20;3569083;-42
2021/11/06 02:20:21;;;;;;;;;18.00;18.00;;;;;3.97;95.92;100646.53;6284025;20;2700229;-43
2021/11/06 02:22:51;;;;;;;;;18.00;17.00;;;;;4.25;96.01;100640.69;6288152;20;2821170;-43
2021/11/06 02:25:21;;;;;;;;;21.67;19.00;;;;;4.16;94.90;100647.94;6283239;20;3564965;-44
2021/11/06 02:28:09;;;;;;;;;28.67;19.67;;;;;3.97;96.08;100641.19;6316355;20;3575217;-43
2021/11/06 02:30:38;;;;;;;;;24.67;21.00;;;;;3.66;97.56;100647.09;6316624;20;3579476;-42
2021/11/06 02:33:07;;;;;;;;;22.33;18.00;;;;;3.57;98.69;100644.59;6284103;20;3555432;-42
2021/11/06 02:35:35;;;;;;;;;25.00;22.00;;;;;3.55;97.57;100651.69;6285740;20;2830482;-43
2021/11/06 02:38:03;;;;;;;;;28.00;23.00;;;;;2.50;99.56;100643.56;6284135;20;2500339;-43
2021/11/06 02:40:31;;;;;;;;;26.00;20.00;;;;;2.78;100.00;100650.25;6288058;20;2835688;-42
2021/11/06 02:43:02;;;;;;;;;25.33;20.33;;;;;2.93;98.92;100643.88;6284466;20;3570017;-42
2021/11/06 02:45:30;;;;;;;;;24.50;23.00;;;;;2.34;100.00;100650.84;6285463;20;2836744;-42
2021/11/06 02:47:59;;;;;;;;;22.33;18.33;;;;;2.52;100.00;100650.63;6283530;20;3560697;-43
2021/11/06 02:50:28;;;;;;;;;22.00;15.67;;;;;2.64;100.00;100654.88;6315050;20;3554418;-42
2021/11/06 02:52:57;;;;;;;;;21.00;19.67;;;;;2.29;100.00;100653.56;6316396;20;3552312;-43
2021/11/06 02:55:27;;;;;;;;;24.00;19.33;;;;;2.44;100.00;100648.97;6315494;20;3561680;-45
2021/11/06 02:57:55;;;;;;;;;24.00;22.00;;;;;2.41;100.00;100653.41;6285503;20;2826290;-42
2021/11/06 03:00:24;;;;;;;;;24.00;19.00;;;;;2.39;100.00;100657.84;6283876;20;2822242;-43
2021/11/06 03:02:56;;;;;;;;;21.67;18.00;;;;;2.60;100.00;100656.69;6286929;20;3547144;-42
2021/11/06 03:05:24;;;;;;;;;24.00;22.00;;;;;2.41;100.00;100658.72;6317775;20;2835687;-43
2021/11/06 03:07:58;;;;;;;;;24.00;22.00;;;;;2.60;100.00;100669.06;6285633;20;2830526;-43
2021/11/06 03:10:26;;;;;;;;;29.00;20.50;;;;;2.80;100.00;100674.13;6278746;20;2498196;-44
2021/11/06 03:12:56;;;;;;;;;22.00;22.00;;;;;2.61;100.00;100681.44;6280937;20;2500258;-42
2021/11/06 03:15:24;;;;;;;;;25.50;23.00;;;;;2.51;100.00;100682.47;6284059;20;2848207;-42
2021/11/06 03:17:53;;;;;;;;;25.00;21.00;;;;;2.43;100.00;100687.84;6282812;20;3562749;-42
2021/11/06 03:20:22;;;;;;;;;28.00;21.50;;;;;2.68;100.00;100691.06;6281981;20;2832562;-43
2021/11/06 03:22:57;;;;;;;;;27.67;22.67;;;;;2.98;100.00;100691.56;6284466;20;3571051;-43
2021/11/06 03:25:27;;;;;;;;;29.50;26.50;;;;;3.01;100.00;100683.53;6285327;20;2846089;-42
2021/11/06 03:27:57;;;;;;;;;28.00;24.00;;;;;2.70;100.00;100689.28;6281484;20;2500254;-43
2021/11/06 03:30:25;;;;;;;;;28.00;23.50;;;;;2.82;100.00;100689.09;6285598;20;2832564;-43
2021/11/06 03:32:54;;;;;;;;;29.00;21.00;;;;;3.44;100.00;100696.16;6286217;20;2833633;-42
2021/11/06 03:35:23;;;;;;;;;27.50;20.50;;;;;3.35;100.00;100705.16;6286713;20;2833692;-44
2021/11/06 03:37:57;;;;;;;;;26.50;21.50;;;;;3.03;100.00;100709.16;6281340;20;2838909;-42
2021/11/06 03:40:26;;;;;;;;;22.00;19.50;;;;;2.99;100.00;100711.88;6283927;20;2817991;-44
2021/11/06 03:42:55;;;;;;;;;24.00;21.33;;;;;2.78;100.00;100716.56;6285783;20;3563801;-43
2021/11/06 03:45:23;;;;;;;;;22.50;22.50;;;;;3.01;100.00;100723.34;6283524;20;2500338;-43
2021/11/06 03:47:52;;;;;;;;;27.50;25.00;;;;;2.89;100.00;100726.16;6284395;20;2838851;-43
2021/11/06 03:50:20;;;;;;;;;27.00;26.00;;;;;2.47;100.00;100723.13;6283473;20;2500396;-43
2021/11/06 03:52:48;;;;;;;;;22.00;20.00;;;;;2.44;100.00;100713.44;6283150;20;3558696;-43
2021/11/06 03:55:16;;;;;;;;;25.00;20.00;;;;;3.20;100.00;100726.59;6316074;20;2831621;-42
2021/11/06 03:57:45;;;;;;;;;26.00;21.33;;;;;2.69;100.00;100713.16;6283743;20;3561733;-44
2021/11/06 04:00:16;;;;;;;;;26.50;20.00;;;;;2.54;100.00;100716.88;6284836;20;2831568;-43
2021/11/06 04:02:47;;;;;;;;;28.00;20.33;;;;;3.36;100.00;100719.28;6283716;20;3575233;-42
2021/11/06 04:05:16;;;;;;;;;26.00;25.00;;;;;3.34;100.00;100718.44;6284046;20;3570078;-43
2021/11/06 04:07:45;;;;;;;;;25.00;24.00;;;;;2.46;100.00;100730.22;6315196;20;3573226;-42
2021/11/06 04:10:14;;;;;;;;;26.33;17.00;;;;;1.90;100.00;100732.56;6277917;20;3590908;-45
2021/11/06 04:12:45;;;;;;;;;24.00;22.00;;;;;2.57;100.00;100736.25;6316907;20;2830231;-42
2021/11/06 04:15:14;;;;;;;;;26.00;24.00;;;;;2.63;100.00;100740.59;6283241;20;2843053;-43
2021/11/06 04:17:44;;;;;;;;;28.33;18.00;;;;;1.77;100.00;100736.22;6282414;20;3597129;-42
2021/11/06 04:20:13;;;;;;;;;22.00;16.00;;;;;2.31;100.00;100733.03;6284916;20;3555478;-42
2021/11/06 04:22:42;;;;;;;;;23.33;19.33;;;;;2.63;100.00;100727.34;6315235;20;3555503;-41
2021/11/06 04:25:10;;;;;;;;;25.33;18.00;;;;;1.90;100.00;100727.28;6314186;20;3581461;-43
2021/11/06 04:27:39;;;;;;;;;19.00;17.00;;;;;1.83;100.00;100730.88;6284525;20;3562860;-41
2021/11/06 04:30:10;;;;;;;;;18.00;18.00;;;;;2.10;100.00;100723.53;6311933;20;3544023;-42
2021/11/06 04:32:40;;;;;;;;;57.67;43.00;;;;;2.26;100.00;100732.19;6281773;20;3621058;-41
2021/11/06 04:35:11;;;;;;;;;98.00;66.67;;;;;2.50;100.00;100723.09;6314502;20;3650194;-44
2021/11/06 04:37:40;;;;;;;;;46.00;39.50;;;;;2.85;100.00;100718.25;6314575;20;2862726;-41
2021/11/06 04:40:13;;;;;;;;;48.67;39.00;;;;;2.56;100.00;100737.16;6282957;20;2850265;-40
2021/11/06 04:42:43;;;;;;;;;33.50;28.50;;;;;2.19;100.00;100734.06;6311297;20;2844208;-44
2021/11/06 04:45:12;;;;;;;;;34.00;30.00;;;;;2.31;100.00;100739.22;6283085;20;2847259;-43
2021/11/06 04:47:41;;;;;;;;;36.00;25.50;;;;;2.43;100.00;100738.22;6281959;20;2857557;-41
2021/11/06 04:50:12;;;;;;;;;36.50;33.00;;;;;2.63;100.00;100740.59;6283863;20;2867001;-42
2021/11/06 04:52:42;;;;;;;;;43.00;35.67;;;;;2.34;100.00;100739.19;6281682;20;2869155;-42
2021/11/06 04:55:15;;;;;;;;;44.50;38.00;;;;;2.34;100.00;100747.16;6313496;20;2852366;-42
2021/11/06 04:57:45;;;;;;;;;43.50;36.00;;;;;2.23;100.00;100745.50;6280060;20;2865944;-43
2021/11/06 05:00:16;;;;;;;;;52.50;42.00;;;;;1.99;100.00;100752.78;6282888;20;2862819;-43
2021/11/06 05:02:46;;;;;;;;;55.00;42.00;;;;;1.94;100.00;100750.16;6283246;20;2873225;-44
2021/11/06 05:05:16;;;;;;;;;58.00;45.00;;;;;1.98;100.00;100751.91;6312398;20;2873267;-44
2021/11/06 05:07:45;;;;;;;;;53.00;44.00;;;;;2.05;100.00;100749.19;6311065;20;2848314;-43
2021/11/06 05:10:14;;;;;;;;;33.50;30.00;;;;;2.20;100.00;100746.41;6281406;20;2848241;-44
2021/11/06 05:12:45;;;;;;;;;47.33;33.67;;;;;1.74;100.00;100749.50;6282169;20;2879501;-44
2021/11/06 05:15:14;;;;;;;;;39.50;33.00;;;;;1.74;100.00;100747.72;6313721;20;2854474;-43
2021/11/06 05:17:43;;;;;;;;;36.00;30.50;;;;;1.63;100.00;100743.38;6280703;20;2852360;-44
2021/11/06 05:20:11;;;;;;;;;33.00;27.00;;;;;1.81;100.00;100745.88;6280982;20;2500314;-45
2021/11/06 05:22:40;;;;;;;;;42.50;38.00;;;;;1.64;100.00;100750.44;6281175;20;2865860;-43
2021/11/06 05:25:09;;;;;;;;;37.00;32.00;;;;;1.66;100.00;100754.84;6279812;20;2500283;-45
2021/11/06 05:27:38;;;;;;;;;34.00;29.00;;;;;1.69;100.00;100764.53;6280869;20;2851385;-45
2021/11/06 05:30:10;;;;;;;;;30.00;27.00;;;;;1.63;100.00;100764.56;6280264;20;2500258;-45
2021/11/06 05:32:40;;;;;;;;;30.50;25.00;;;;;1.67;100.00;100771.59;6281701;20;2852355;-44
2021/11/06 05:35:12;;;;;;;;;37.00;27.00;;;;;1.67;100.00;100774.25;6277010;20;2868082;-43
2021/11/06 05:37:41;;;;;;;;;30.00;27.00;;;;;2.10;100.00;100771.22;6278536;20;2500397;-46
2021/11/06 05:40:11;;;;;;;;;45.00;36.00;;;;;2.51;100.00;100764.63;6279722;20;2500277;-44
2021/11/06 05:42:41;;;;;;;;;56.33;40.00;;;;;2.39;100.00;100761.19;6280872;20;2881696;-44
2021/11/06 05:45:11;;;;;;;;;36.00;33.50;;;;;2.03;100.00;100758.91;6309034;20;2853604;-44
2021/11/06 05:47:39;;;;;;;;;38.00;25.00;;;;;2.03;100.00;100769.50;6278994;20;2500287;-44
2021/11/06 05:50:12;;;;;;;;;38.00;33.00;;;;;2.35;100.00;100772.75;6282803;20;2870153;-44
2021/11/06 05:52:43;;;;;;;;;48.33;36.67;;;;;2.44;100.00;100777.06;6282036;20;2877340;-43
2021/11/06 05:55:16;;;;;;;;;42.50;27.50;;;;;2.50;100.00;100781.41;6306832;20;2489846;-43
2021/11/06 05:57:45;;;;;;;;;37.50;27.50;;;;;2.29;100.00;100798.41;6279462;20;2867015;-44
2021/11/06 06:00:19;;;;;;;;;35.50;26.00;;;;;2.29;100.00;100809.91;6278950;20;2500413;-43
2021/11/06 06:02:48;;;;;;;;;29.50;25.00;;;;;2.61;100.00;100811.34;6277050;20;2500311;-43
2021/11/06 06:05:17;;;;;;;;;16.50;16.00;;;;;2.88;100.00;100819.88;6282223;20;2825260;-45
2021/11/06 06:07:45;;;;;;;;;29.50;23.50;;;;;3.10;100.00;100818.72;6278677;20;2500284;-43
2021/11/06 06:10:17;;;;;;;;;33.50;29.00;;;;;3.21;100.00;100822.13;6279995;20;2853373;-46
2021/11/06 06:12:51;;;;;;;;;27.00;27.00;;;;;3.15;100.00;100824.84;6279254;20;2836699;-43
2021/11/06 06:15:23;;;;;;;;;32.00;28.50;;;;;3.24;100.00;100830.03;6278387;20;2846091;-44
2021/11/06 06:17:52;;;;;;;;;39.50;28.00;;;;;3.62;100.00;100836.59;6275969;20;2500277;-44
2021/11/06 06:20:21;;;;;;;;;33.50;26.00;;;;;3.57;99.99;100837.56;6276720;20;2500419;-46
2021/11/06 06:22:49;;;;;;;;;32.50;29.50;;;;;3.61;100.00;100837.50;6278506;20;2500320;-44
2021/11/06 06:25:19;;;;;;;;;38.50;34.00;;;;;3.61;99.69;100828.66;6277963;20;2863777;-43
2021/11/06 06:27:49;;;;;;;;;43.00;34.33;;;;;3.37;100.00;100833.41;6278046;20;2870170;-47
2021/11/06 06:30:20;;;;;;;;;54.00;40.00;;;;;3.42;100.00;100838.63;6310531;20;2864866;-44
2021/11/06 06:32:49;;;;;;;;;71.00;53.00;;;;;3.26;100.00;100841.50;6277169;20;2872201;-43
2021/11/06 06:35:18;;;;;;;;;59.00;45.00;;;;;3.29;100.00;100835.25;6275122;20;2859652;-46
2021/11/06 06:37:47;;;;;;;;;55.50;42.00;;;;;4.15;99.35;100841.97;6278908;20;2855600;-43
2021/11/06 06:40:17;;;;;;;;;45.00;33.67;;;;;4.35;97.34;100846.97;6278881;20;3621311;-45
2021/11/06 06:42:47;;;;;;;;;41.00;35.67;;;;;5.62;90.08;100860.38;6310505;20;3614852;-45
2021/11/06 06:45:18;;;;;;;;;52.33;39.33;;;;;5.65;88.87;100844.31;6310464;20;3620153;-45
2021/11/06 06:47:49;;;;;;;;;61.33;46.00;;;;;8.57;76.08;100861.00;6310838;20;2865899;-44
2021/11/06 06:50:18;;;;;;;;;87.00;62.67;;;;;5.72;83.56;100861.06;6309944;20;3664243;-43
2021/11/06 06:52:48;;;;;;;;;75.67;58.00;;;;;6.60;82.70;100865.16;6276442;20;2884855;-44
2021/11/06 06:55:18;;;;;;;;;56.00;46.50;;;;;6.50;86.42;100876.97;6308704;20;2859614;-43
2021/11/06 06:57:48;;;;;;;;;45.00;39.67;;;;;9.33;74.76;100890.47;6283727;20;2871083;-44
2021/11/06 07:00:18;;;;;;;;;35.00;28.00;;;;;11.23;65.80;100881.81;6316225;20;2856635;-45
2021/11/06 07:02:48;;;;;;;;;42.00;36.33;;;;;12.82;61.48;100900.19;6314870;20;3619082;-46
2021/11/06 07:05:17;;;;;;;;;36.00;31.00;;;;;12.99;59.33;100902.03;6315686;20;2860767;-44
2021/11/06 07:07:46;;;;;;;;;41.50;39.00;;;;;10.02;65.98;100907.44;6284355;20;2852448;-43
2021/11/06 07:10:15;;;;;;;;;41.33;34.67;;;;;6.41;80.57;100903.91;6284819;20;3617977;-43
2021/11/06 07:12:46;;;;;;;;;32.25;31.75;;;;;5.84;86.67;100914.06;6338065;20;3598170;-46
2021/11/06 07:15:15;;;;;;;;;46.00;33.33;;;;;5.79;88.44;100915.97;6316565;20;3632575;-43
2021/11/06 07:17:45;;;;;;;;;44.33;38.00;;;;;5.66;91.30;100917.13;6283750;20;3614838;-44
2021/11/06 07:20:15;;;;;;;;;42.33;38.00;;;;;5.85;90.59;100914.97;6317967;20;3602521;-43
2021/11/06 07:22:46;;;;;;;;;45.00;36.67;;;;;6.14;89.05;100914.34;6283404;20;2859719;-44
2021/11/06 07:25:15;;;;;;;;;48.33;37.33;;;;;6.31;88.65;100914.78;6321746;20;3612838;-43
2021/11/06 07:27:44;;;;;;;;;39.33;35.67;;;;;6.44;87.93;100925.16;6289182;20;3608593;-46
2021/11/06 07:30:14;;;;;;;;;43.67;38.33;;;;;6.54;87.65;100924.91;6287685;20;3619029;-44
2021/11/06 07:32:42;;;;;;;;;43.33;36.67;;;;;6.72;86.86;100915.56;6321558;20;3600295;-44
2021/11/06 07:35:12;;;;;;;;;34.00;31.67;;;;;6.77;85.52;100928.78;6286520;20;3607577;-42
2021/11/06 07:37:42;;;;;;;;;27.67;26.67;;;;;6.79;84.60;100927.84;6318963;20;2852359;-43
2021/11/06 07:40:12;;;;;;;;;20.00;20.00;;;;;7.10;83.03;100924.31;6318060;20;2831646;-43
2021/11/06 07:42:44;;;;;;;;;22.50;22.50;;;;;7.41;82.19;100931.50;6285594;20;2500276;-43
2021/11/06 07:45:17;;;;;;;;;24.50;24.00;;;;;7.25;82.93;100926.56;6286974;20;2839893;-43
2021/11/06 07:47:47;;;;;;;;;28.00;27.50;;;;;7.19;83.34;100932.09;6286387;20;2845046;-44
2021/11/06 07:50:18;;;;;;;;;30.00;26.33;;;;;7.34;83.01;100937.91;6287309;20;2854496;-43
2021/11/06 07:52:47;;;;;;;;;30.00;27.50;;;;;7.42;84.40;100934.09;6318498;20;2847114;-44
2021/11/06 07:55:16;;;;;;;;;25.50;24.00;;;;;7.39;84.83;100936.88;6285998;20;2844105;-44
2021/11/06 07:57:46;;;;;;;;;27.00;25.00;;;;;7.47;83.19;100942.88;6285192;20;2845174;-44
2021/11/06 08:00:18;;;;;;;;;19.00;14.00;;;;;7.72;81.52;100946.66;6283543;20;3528484;-45
2021/11/06 08:02:47;;;;;;;;;22.50;16.00;;;;;7.95;80.12;100946.81;6283528;20;2498202;-44
2021/11/06 08:05:17;;;;;;;;;16.00;15.00;;;;;7.98;80.23;100946.75;6288040;20;2819069;-45
2021/11/06 08:07:46;;;;;;;;;17.67;14.00;;;;;7.95;79.70;100952.16;6282444;20;3548253;-45
2021/11/06 08:10:14;;;;;;;;;17.50;15.00;;;;;7.88;81.38;100953.28;6288920;20;2830496;-43
2021/11/06 08:12:43;;;;;;;;;18.33;14.67;;;;;8.08;79.63;100953.56;6285618;20;3541997;-43
2021/11/06 08:15:15;;;;;;;;;12.00;12.00;;;;;8.03;79.31;100952.81;6318403;20;2804484;-46
2021/11/06 08:17:44;;;;;;;;;14.00;13.00;;;;;8.09;78.77;100957.09;6287766;20;2805574;-44
2021/11/06 08:20:12;;;;;;;;;15.00;11.00;;;;;7.97;79.49;100958.34;6320691;20;2798186;-44
2021/11/06 08:22:41;;;;;;;;;17.00;14.00;;;;;8.09;78.67;100952.63;6287315;20;3547281;-46
2021/11/06 08:25:15;;;;;;;;;11.00;11.00;;;;;8.16;79.38;100947.94;6316096;20;2797428;-43
2021/11/06 08:27:52;;;;;;;;;12.00;12.00;;;;;8.39;78.83;100949.94;6318105;20;3525243;-44
2021/11/06 08:30:24;;;;;;;;;17.00;14.00;;;;;8.47;78.49;100955.03;6316586;20;3549190;-43
2021/11/06 08:32:57;;;;;;;;;19.00;15.67;;;;;8.71;78.07;100958.69;6318005;20;3551263;-44
2021/11/06 08:35:28;;;;;;;;;14.33;13.00;;;;;8.65;78.51;100964.28;6316824;20;3538816;-46
2021/11/06 08:38:00;;;;;;;;;17.00;15.00;;;;;8.65;78.90;100956.25;6316936;20;2815016;-44
2021/11/06 08:40:29;;;;;;;;;26.50;23.00;;;;;8.67;78.86;100959.75;6283533;20;2852439;-43
2021/11/06 08:42:58;;;;;;;;;16.00;15.00;;;;;8.44;79.15;100958.69;6288109;20;2816901;-42
2021/11/06 08:45:27;;;;;;;;;18.00;17.33;;;;;8.43;79.86;100948.06;6285476;20;3556510;-44
2021/11/06 08:47:56;;;;;;;;;17.33;17.00;;;;;8.39;79.81;100959.72;6285993;20;3550289;-43
2021/11/06 08:50:29;;;;;;;;;17.00;15.00;;;;;8.75;79.72;100963.03;6315842;20;2483608;-45
2021/11/06 08:52:59;;;;;;;;;10.40;10.40;;;;;8.75;78.96;100968.41;6312045;20;2787745;-44
2021/11/06 08:55:28;;;;;;;;;17.00;15.00;;;;;9.01;78.99;100973.75;6286019;20;2813985;-46
2021/11/06 08:57:58;;;;;;;;;16.00;16.00;;;;;9.12;77.65;100983.22;6284823;20;2825299;-44
2021/11/06 09:00:42;;;;;;;;;17.00;13.67;;;;;9.16;76.24;100992.88;6285978;20;2804530;-46
2021/11/06 09:03:22;;;;;;;;;27.00;25.00;;;;;9.29;76.11;100986.16;6315833;20;2852367;-43
2021/11/06 09:05:54;;;;;;;;;14.67;14.67;;;;;9.51;74.87;100990.78;6286050;20;3533563;-42
2021/11/06 09:08:35;;;;;;;;;96.50;77.25;;;;;9.24;71.11;100982.75;6314971;20;4432544;-44
2021/11/06 09:11:10;;;;;;;;;13.33;11.00;;;;;9.25;71.40;100987.22;6312262;20;2786782;-44
2021/11/06 09:13:39;;;;;;;;;11.00;11.00;;;;;9.30;72.22;100993.28;6309042;20;2791990;-45
2021/11/06 09:16:10;;;;;;;;;16.00;12.00;;;;;9.71;71.02;100990.91;6276227;20;3536715;-44
2021/11/06 09:18:40;;;;;;;;;16.00;12.67;;;;;9.64;70.31;100994.75;6307954;20;2796152;-44
2021/11/06 09:21:10;;;;;;;;;16.50;13.00;;;;;9.82;70.34;100991.41;6311473;20;2821207;-44
2021/11/06 09:23:40;;;;;;;;;17.67;15.00;;;;;10.17;68.77;101002.59;6279309;20;3530821;-44
2021/11/06 09:26:10;;;;;;;;;13.50;13.00;;;;;9.90;68.97;100993.78;6314090;20;2810722;-46
2021/11/06 09:28:40;;;;;;;;;12.00;12.00;;;;;9.93;69.81;100999.03;6282317;20;2789890;-48
2021/11/06 09:31:12;;;;;;;;;12.67;12.67;;;;;10.00;68.14;100996.97;6286056;20;3538867;-46
2021/11/06 09:33:45;;;;;;;;;14.80;14.80;;;;;9.87;70.51;100994.78;6341877;20;2810660;-47
2021/11/06 09:36:14;;;;;;;;;13.67;12.00;;;;;10.21;69.52;101000.66;6282842;20;3538855;-46
2021/11/06 09:38:43;;;;;;;;;12.00;12.00;;;;;10.32;68.42;100991.28;6314870;20;2791993;-46
2021/11/06 09:41:12;;;;;;;;;18.00;14.00;;;;;10.77;68.76;100993.03;6319513;20;2815262;-45
2021/11/06 09:43:43;;;;;;;;;11.40;11.40;;;;;10.66;67.17;100987.22;6309838;20;2788995;-50
2021/11/06 09:46:11;;;;;;;;;13.50;13.50;;;;;10.51;68.96;100983.38;6289557;20;2806526;-45
2021/11/06 09:48:44;;;;;;;;;15.33;14.00;;;;;10.00;69.59;100988.94;6284735;20;2791930;-46
2021/11/06 09:51:16;;;;;;;;;18.00;15.00;;;;;10.91;69.56;100988.91;6318877;20;2812866;-44
2021/11/06 09:53:53;;;;;;;;;12.33;12.33;;;;;10.54;68.13;100979.69;6285690;20;3539861;-44
2021/11/06 09:56:27;;;;;;;;;15.00;12.00;;;;;10.76;68.88;100983.22;6317799;20;2800265;-44
2021/11/06 09:59:00;;;;;;;;;17.00;16.50;;;;;10.39;71.82;100974.94;6286460;20;2823194;-46
2021/11/06 10:01:33;;;;;;;;;13.00;13.00;;;;;10.38;70.79;100984.81;6285395;20;2809632;-44
2021/11/06 10:04:09;;;;;;;;;17.50;15.00;;;;;10.62;69.43;100976.69;6288067;20;2810769;-42
2021/11/06 10:06:45;;;;;;;;;14.00;13.00;;;;;10.94;67.51;100976.19;6284728;20;3540836;-44
2021/11/06 10:09:16;;;;;;;;;12.00;12.00;;;;;10.84;69.32;100982.03;6314828;20;3521136;-42
2021/11/06 10:11:53;;;;;;;;;14.33;14.33;;;;;10.91;67.54;100972.78;6315540;20;3529651;-42
2021/11/06 10:14:26;;;;;;;;;12.00;12.00;;;;;10.64;68.15;100972.13;6314657;20;3512904;-42
2021/11/06 10:16:59;;;;;;;;;12.50;11.00;;;;;10.41;68.81;100960.50;6315120;20;2790919;-42
2021/11/06 10:19:46;;;;;;;;;18.50;14.00;;;;;11.00;69.41;100961.63;6284953;20;2817447;-44
2021/11/06 10:22:26;;;;;;;;;14.00;13.67;;;;;10.94;69.84;100962.78;6285138;20;3536811;-42
2021/11/06 10:24:57;;;;;;;;;15.33;15.33;;;;;11.03;67.20;100955.25;6313859;20;3543067;-42
2021/11/06 10:27:32;;;;;;;;;18.00;16.50;;;;;11.16;67.42;100951.09;6310552;20;2483637;-43
2021/11/06 10:30:23;;;;;;;;;17.00;15.00;;;;;11.26;68.99;100955.13;6285735;20;3540045;-41
2021/11/06 10:33:17;;;;;;;;;21.00;17.50;;;;;11.11;68.32;100947.72;6320099;20;2823306;-42
2021/11/06 10:35:51;;;;;;;;;18.00;16.00;;;;;11.41;68.38;100942.81;6285528;20;2500311;-42
2021/11/06 10:38:24;;;;;;;;;18.50;16.00;;;;;11.50;66.98;100947.78;6290824;20;2813889;-42
2021/11/06 10:40:59;;;;;;;;;13.33;13.33;;;;;11.07;69.82;100941.63;6289482;20;3535644;-41
2021/11/06 10:43:31;;;;;;;;;15.33;13.00;;;;;11.05;69.52;100938.13;6321744;20;3532604;-42
2021/11/06 10:46:03;;;;;;;;;18.00;15.50;;;;;11.38;67.53;100945.66;6286291;20;2500349;-42
2021/11/06 10:48:35;;;;;;;;;13.67;13.67;;;;;11.32;66.55;100938.75;6284287;20;3529436;-43
2021/11/06 10:51:11;;;;;;;;;19.00;15.00;;;;;11.59;67.64;100933.06;6320305;20;3544484;-42
2021/11/06 10:54:00;;;;;;;;;17.00;15.50;;;;;11.49;67.22;100927.22;6290288;20;2819094;-42
2021/11/06 10:56:42;;;;;;;;;17.00;16.00;;;;;11.56;67.48;100928.69;6292108;20;2807578;-42
2021/11/06 10:59:17;;;;;;;;;20.67;18.67;;;;;11.31;66.76;100923.53;6287510;20;3556512;-43
2021/11/06 11:01:53;;;;;;;;;19.00;19.00;;;;;11.75;65.88;100917.06;6287214;20;2500271;-45
2021/11/06 11:04:24;;;;;;;;;16.50;15.50;;;;;11.79;68.44;100905.22;6283236;20;2500275;-46
2021/11/06 11:06:57;;;;;;;;;17.50;17.00;;;;;12.02;67.33;100905.03;6284281;20;2491923;-44
2021/11/06 11:09:36;;;;;;;;;16.67;15.00;;;;;11.74;64.11;100899.16;6289250;20;3549301;-42
2021/11/06 11:12:17;;;;;;;;;12.00;12.00;;;;;11.72;63.70;100891.19;6288307;20;3521110;-42